Time;durP1;ratioP1;P1;durP2;ratioP2;P2;SDS_P1;SDS_P2;PMS_P1;PMS_P2;Temp;Humidity;BMP_temperature;BMP_pressure;BME280_temperature;BME280_humidity;BME280_pressure;Samples;Min_cycle;Max_cycle;Signal;HPM_P1;HPM_P2
2021/07/12 00:01:05;;;;;;;;;;;19.30;97.40;;;;;;5080473;28;20003;-73
2021/07/12 00:03:32;;;;;;;;;;;19.10;97.90;;;;;;5079522;28;19924;-72
2021/07/12 00:05:59;;;;;;;;;;;19.10;98.20;;;;;;5084926;28;19985;-74
2021/07/12 00:08:26;;;;;;;;;;;19.00;98.40;;;;;;5109510;27;19928;-73
2021/07/12 00:10:53;;;;;;;;;;;19.00;98.30;;;;;;5083314;28;20279;-73
2021/07/12 00:13:20;;;;;;;;;;;18.90;98.50;;;;;;5087437;28;19924;-73
2021/07/12 00:15:47;;;;;;;;;;;18.90;99.10;;;;;;5082818;28;20090;-73
2021/07/12 00:18:13;;;;;;;;;;;19.00;98.80;;;;;;5075374;28;19924;-73
2021/07/12 00:20:40;;;;;;;;;;;18.90;99.10;;;;;;5077732;28;20010;-73
2021/07/12 00:23:07;;;;;;;;;;;18.80;99.50;;;;;;5081828;28;20527;-73
2021/07/12 00:25:35;;;;;;;;;;;18.70;99.90;;;;;;5081969;28;19928;-72
2021/07/12 00:28:02;;;;;;;;;;;18.70;99.90;;;;;;5083351;28;19928;-72
2021/07/12 00:30:29;;;;;;;;;;;18.70;99.90;;;;;;5078991;28;19924;-72
2021/07/12 00:32:58;;;;;;;;;;;18.70;99.90;;;;;;5083583;28;19978;-72
2021/07/12 00:35:26;;;;;;;;;;;18.70;99.90;;;;;;5084279;28;19932;-73
2021/07/12 00:37:53;;;;;;;;;;;18.70;99.90;;;;;;5087633;28;19924;-72
2021/07/12 00:40:21;;;;;;;;;;;18.70;99.90;;;;;;5075221;28;19928;-73
2021/07/12 00:42:48;;;;;;;;;;;18.80;99.90;;;;;;5083772;28;20326;-73
2021/07/12 00:45:17;;;;;;;;;;;18.70;99.90;;;;;;5092143;28;19924;-73
2021/07/12 00:47:44;;;;;;;;;;;18.70;99.90;;;;;;5079168;28;19968;-73
2021/07/12 00:50:11;;;;;;;;;;;18.60;99.90;;;;;;5081962;28;19924;-73
2021/07/12 00:52:38;;;;;;;;;;;18.60;99.90;;;;;;5080121;28;20390;-73
2021/07/12 00:55:13;;;;;;;;;;;18.50;99.90;;;;;;5079820;28;19932;-73
2021/07/12 00:57:41;;;;;;;;;;;18.40;99.90;;;;;;5073716;28;19924;-72
2021/07/12 01:00:09;;;;;;;;;;;18.40;99.90;;;;;;5080197;28;19932;-73
2021/07/12 01:02:36;;;;;;;;;;;18.40;99.90;;;;;;5084846;28;20430;-72
2021/07/12 01:05:07;;;;;;;;;;;18.40;99.90;;;;;;5081873;28;19970;-72
2021/07/12 01:07:34;;;;;;;;;;;18.40;99.90;;;;;;5082115;28;19928;-73
2021/07/12 01:10:01;;;;;;;;;;;18.50;99.90;;;;;;5075760;28;19932;-73
2021/07/12 01:12:42;;;;;;;;;;;18.60;99.90;;;;;;5080972;28;19935;-72
2021/07/12 01:15:13;;;;;;;;;;;18.60;99.90;;;;;;5080352;28;19932;-73
2021/07/12 01:17:43;;;;;;;;;;;18.60;99.90;;;;;;5079286;28;19970;-73
2021/07/12 01:20:15;;;;;;;;;;;18.60;99.90;;;;;;5079790;28;19931;-73
2021/07/12 01:23:00;;;;;;;;;;;18.50;99.90;;;;;;5078433;28;20294;-73
2021/07/12 01:25:45;;;;;;;;;;;18.40;99.90;;;;;;5082014;28;19924;-73
2021/07/12 01:28:12;;;;;;;;;;;18.30;99.90;;;;;;5098470;28;19928;-73
2021/07/12 01:30:58;;;;;;;;;;;18.40;99.90;;;;;;5083974;28;20005;-73
2021/07/12 01:33:32;;;;;;;;;;;18.40;99.90;;;;;;5076414;28;19955;-73
2021/07/12 01:36:02;;;;;;;;;;;18.50;99.90;;;;;;5079870;28;19970;-73
2021/07/12 01:38:40;;;;;;;;;;;18.50;99.90;;;;;;5080523;28;20285;-73
2021/07/12 01:41:10;;;;;;;;;;;18.40;99.90;;;;;;5078189;28;19978;-73
2021/07/12 01:43:44;;;;;;;;;;;18.40;99.90;;;;;;5073475;28;19928;-73
2021/07/12 01:46:15;;;;;;;;;;;18.40;99.90;;;;;;5083726;28;19936;-73
2021/07/12 01:48:51;;;;;;;;;;;18.30;99.90;;;;;;5085923;28;19973;-73
2021/07/12 01:51:21;;;;;;;;;;;18.50;99.90;;;;;;5095442;28;19924;-73
2021/07/12 01:53:54;;;;;;;;;;;18.40;99.90;;;;;;5080745;28;20249;-73
2021/07/12 01:56:50;;;;;;;;;;;18.30;99.90;;;;;;5078200;28;19936;-73
2021/07/12 01:59:23;;;;;;;;;;;18.30;99.90;;;;;;5077773;28;19924;-73
2021/07/12 02:01:51;;;;;;;;;;;18.20;99.90;;;;;;5078663;28;20516;-73
2021/07/12 02:04:19;;;;;;;;;;;18.00;99.90;;;;;;5075774;28;19931;-73
2021/07/12 02:06:47;;;;;;;;;;;18.00;99.90;;;;;;5081435;28;19928;-73
2021/07/12 02:09:14;;;;;;;;;;;18.00;99.90;;;;;;5093985;28;20248;-73
2021/07/12 02:11:42;;;;;;;;;;;18.00;99.90;;;;;;5086441;28;19931;-73
2021/07/12 02:14:09;;;;;;;;;;;18.20;99.90;;;;;;5074787;28;19924;-72
2021/07/12 02:16:37;;;;;;;;;;;18.10;99.90;;;;;;5080277;28;19924;-73
2021/07/12 02:19:05;;;;;;;;;;;18.00;99.90;;;;;;5072280;28;20368;-73
2021/07/12 02:21:33;;;;;;;;;;;18.20;99.90;;;;;;5085607;28;19928;-72
2021/07/12 02:24:01;;;;;;;;;;;18.20;99.90;;;;;;5075492;28;19931;-72
2021/07/12 02:26:29;;;;;;;;;;;18.10;99.90;;;;;;5082302;28;19924;-72
2021/07/12 02:28:57;;;;;;;;;;;18.10;99.90;;;;;;5079093;28;19949;-73
2021/07/12 02:31:24;;;;;;;;;;;18.10;99.90;;;;;;5078511;28;19993;-73
2021/07/12 02:33:52;;;;;;;;;;;18.30;99.90;;;;;;5074765;28;19932;-73
2021/07/12 02:36:19;;;;;;;;;;;18.20;99.90;;;;;;5079149;28;19935;-73
2021/07/12 02:38:46;;;;;;;;;;;18.10;99.90;;;;;;5080411;28;19977;-72
2021/07/12 02:41:14;;;;;;;;;;;18.00;99.90;;;;;;5078667;28;20342;-73
2021/07/12 02:43:41;;;;;;;;;;;18.10;99.90;;;;;;5083532;28;19924;-73
2021/07/12 02:46:08;;;;;;;;;;;18.10;99.90;;;;;;5077908;28;19932;-73
2021/07/12 02:48:35;;;;;;;;;;;18.00;99.90;;;;;;5083632;28;19924;-73
2021/07/12 02:51:07;;;;;;;;;;;18.10;99.90;;;;;;5077523;28;19939;-72
2021/07/12 02:53:38;;;;;;;;;;;18.10;99.90;;;;;;5077421;28;19925;-73
2021/07/12 02:56:05;;;;;;;;;;;18.00;99.90;;;;;;5084739;28;20402;-73
2021/07/12 02:58:32;;;;;;;;;;;18.00;99.90;;;;;;5083626;28;20371;-73
2021/07/12 03:00:59;;;;;;;;;;;18.00;99.90;;;;;;5084187;28;19977;-73
2021/07/12 03:03:25;;;;;;;;;;;18.10;99.90;;;;;;5079797;28;19925;-73
2021/07/12 03:05:56;;;;;;;;;;;18.00;99.90;;;;;;5079993;28;19932;-73
2021/07/12 03:08:28;;;;;;;;;;;17.90;99.90;;;;;;5107777;28;20380;-73
2021/07/12 03:10:56;;;;;;;;;;;18.00;99.90;;;;;;5083299;28;19981;-73
2021/07/12 03:13:46;;;;;;;;;;;18.00;99.90;;;;;;5070501;28;20077;-72
2021/07/12 03:16:14;;;;;;;;;;;18.10;99.90;;;;;;5079712;28;19960;-72
2021/07/12 03:18:44;;;;;;;;;;;18.00;99.90;;;;;;5077714;28;19924;-72
2021/07/12 03:21:11;;;;;;;;;;;18.00;99.90;;;;;;5110695;27;19977;-73
2021/07/12 03:23:40;;;;;;;;;;;17.90;99.90;;;;;;5075195;28;19973;-75
2021/07/12 03:26:08;;;;;;;;;;;17.80;99.90;;;;;;5085157;28;19977;-72
2021/07/12 03:28:35;;;;;;;;;;;17.80;99.90;;;;;;5084445;28;20351;-72
2021/07/12 03:31:02;;;;;;;;;;;17.90;99.90;;;;;;5121751;27;20439;-72
2021/07/12 03:33:31;;;;;;;;;;;17.80;99.90;;;;;;5088225;28;19964;-72
2021/07/12 03:35:58;;;;;;;;;;;17.80;99.90;;;;;;5079403;28;19928;-73
2021/07/12 03:38:25;;;;;;;;;;;17.70;99.90;;;;;;5085589;28;19928;-72
2021/07/12 03:40:52;;;;;;;;;;;17.70;99.90;;;;;;5085121;28;19923;-72
2021/07/12 03:43:20;;;;;;;;;;;17.60;99.90;;;;;;5080615;28;20360;-72
2021/07/12 03:46:00;;;;;;;;;;;17.70;99.90;;;;;;5084679;28;19929;-72
2021/07/12 03:48:33;;;;;;;;;;;17.60;99.90;;;;;;5079260;28;20335;-72
2021/07/12 03:51:01;;;;;;;;;;;17.60;99.90;;;;;;5084391;28;19924;-72
2021/07/12 03:53:29;;;;;;;;;;;17.60;99.90;;;;;;5089504;28;19928;-72
2021/07/12 03:55:56;;;;;;;;;;;17.60;99.90;;;;;;5085156;28;19931;-72
2021/07/12 03:58:23;;;;;;;;;;;17.70;99.90;;;;;;5078752;28;19960;-72
2021/07/12 04:00:49;;;;;;;;;;;17.60;99.90;;;;;;5082075;28;20487;-72
2021/07/12 04:03:16;;;;;;;;;;;17.80;99.90;;;;;;5085127;28;20441;-73
2021/07/12 04:05:43;;;;;;;;;;;17.80;99.90;;;;;;5085888;28;19937;-72
2021/07/12 04:08:10;;;;;;;;;;;17.90;99.90;;;;;;5078913;28;20257;-72
2021/07/12 04:10:37;;;;;;;;;;;17.70;99.90;;;;;;5086532;28;20363;-72
2021/07/12 04:13:04;;;;;;;;;;;17.70;99.90;;;;;;5081130;28;19932;-73
2021/07/12 04:15:31;;;;;;;;;;;17.70;99.90;;;;;;5080181;28;19925;-72
2021/07/12 04:17:58;;;;;;;;;;;17.80;99.90;;;;;;5082844;28;20261;-71
2021/07/12 04:20:25;;;;;;;;;;;17.70;99.90;;;;;;5083206;28;19943;-72
2021/07/12 04:22:52;;;;;;;;;;;17.80;99.90;;;;;;5079723;28;19978;-72
2021/07/12 04:25:18;;;;;;;;;;;17.80;99.90;;;;;;5075809;28;19925;-72
2021/07/12 04:27:47;;;;;;;;;;;17.90;99.90;;;;;;5083929;28;19931;-73
2021/07/12 04:30:14;;;;;;;;;;;17.80;99.90;;;;;;5081636;28;20371;-73
2021/07/12 04:32:42;;;;;;;;;;;17.80;99.90;;;;;;5111677;27;19931;-73
2021/07/12 04:35:10;;;;;;;;;;;17.90;99.90;;;;;;5082478;28;19977;-73
2021/07/12 04:37:37;;;;;;;;;;;17.90;99.90;;;;;;5078775;28;20017;-72
2021/07/12 04:40:04;;;;;;;;;;;17.90;99.90;;;;;;5081806;28;19932;-73
2021/07/12 04:42:31;;;;;;;;;;;17.90;99.90;;;;;;5083096;28;19954;-73
2021/07/12 04:44:57;;;;;;;;;;;18.00;99.90;;;;;;5088212;28;19925;-73
2021/07/12 04:47:24;;;;;;;;;;;18.10;99.90;;;;;;5081064;28;19931;-73
2021/07/12 04:49:51;;;;;;;;;;;18.20;99.90;;;;;;5081623;28;19924;-73
2021/07/12 04:52:18;;;;;;;;;;;18.20;99.90;;;;;;5077870;28;19987;-72
2021/07/12 04:54:45;;;;;;;;;;;18.20;99.90;;;;;;5115454;27;19985;-72
2021/07/12 04:57:12;;;;;;;;;;;18.30;99.90;;;;;;5078850;28;19928;-72
2021/07/12 04:59:39;;;;;;;;;;;18.70;99.90;;;;;;5083009;28;19924;-72
2021/07/12 05:02:07;;;;;;;;;;;19.00;99.90;;;;;;5083729;28;20429;-73
2021/07/12 05:04:34;;;;;;;;;;;19.40;99.90;;;;;;5084127;28;19973;-72
2021/07/12 05:07:01;;;;;;;;;;;19.80;99.90;;;;;;5084631;28;19924;-73
2021/07/12 05:09:28;;;;;;;;;;;20.20;99.30;;;;;;5079659;28;20748;-72
2021/07/12 05:11:54;;;;;;;;;;;20.60;97.70;;;;;;5078433;28;19932;-73
2021/07/12 05:14:21;;;;;;;;;;;20.80;96.80;;;;;;5083069;28;19931;-73
2021/07/12 05:16:48;;;;;;;;;;;21.30;96.00;;;;;;5084468;28;20391;-73
2021/07/12 05:19:15;;;;;;;;;;;21.60;94.40;;;;;;5083867;28;19928;-72
2021/07/12 05:21:44;;;;;;;;;;;21.60;93.60;;;;;;5085514;28;19974;-72
2021/07/12 05:24:15;;;;;;;;;;;21.60;93.20;;;;;;5112230;27;20389;-73
2021/07/12 05:26:41;;;;;;;;;;;22.00;92.50;;;;;;5081416;28;20291;-72
2021/07/12 05:29:08;;;;;;;;;;;22.10;92.10;;;;;;5078420;28;19924;-71
2021/07/12 05:31:35;;;;;;;;;;;22.70;90.30;;;;;;5081483;28;19931;-72
2021/07/12 05:34:02;;;;;;;;;;;22.00;91.10;;;;;;5080020;28;19971;-72
2021/07/12 05:36:29;;;;;;;;;;;21.80;91.50;;;;;;5112471;27;20433;-73
2021/07/12 05:38:56;;;;;;;;;;;21.50;91.50;;;;;;5113173;27;20333;-71
2021/07/12 05:41:25;;;;;;;;;;;21.20;91.80;;;;;;5082251;28;19939;-71
2021/07/12 05:43:53;;;;;;;;;;;20.30;93.50;;;;;;5087997;28;19931;-74
2021/07/12 05:46:19;;;;;;;;;;;19.80;94.60;;;;;;5076033;28;19935;-74
2021/07/12 05:48:46;;;;;;;;;;;19.60;95.50;;;;;;5078775;28;19924;-75
2021/07/12 05:51:13;;;;;;;;;;;19.30;97.00;;;;;;5079073;28;19924;-73
2021/07/12 05:53:40;;;;;;;;;;;19.40;97.20;;;;;;5082909;28;19977;-74
2021/07/12 05:56:07;;;;;;;;;;;19.50;97.20;;;;;;5075330;28;19977;-73
2021/07/12 05:58:34;;;;;;;;;;;19.60;97.00;;;;;;5078250;28;19978;-72
2021/07/12 06:01:00;;;;;;;;;;;19.60;97.40;;;;;;5079294;28;19924;-73
2021/07/12 06:03:27;;;;;;;;;;;19.70;97.40;;;;;;5081065;28;19924;-72
2021/07/12 06:05:54;;;;;;;;;;;19.80;97.10;;;;;;5075545;28;19944;-72
2021/07/12 06:08:21;;;;;;;;;;;19.90;96.90;;;;;;5080100;28;19986;-73
2021/07/12 06:10:48;;;;;;;;;;;20.40;96.00;;;;;;5080102;28;19924;-72
2021/07/12 06:13:15;;;;;;;;;;;20.70;94.70;;;;;;5076145;28;19928;-73
2021/07/12 06:15:41;;;;;;;;;;;20.40;95.10;;;;;;5077585;28;19967;-72
2021/07/12 06:18:15;;;;;;;;;;;20.10;95.30;;;;;;5076644;28;19924;-73
2021/07/12 06:20:42;;;;;;;;;;;20.10;95.10;;;;;;5078710;28;19998;-74
2021/07/12 06:23:10;;;;;;;;;;;20.00;94.90;;;;;;5078965;28;19924;-74
2021/07/12 06:25:37;;;;;;;;;;;20.10;94.70;;;;;;5086228;28;19985;-75
2021/07/12 06:28:05;;;;;;;;;;;20.20;94.60;;;;;;5080292;28;19948;-75
2021/07/12 06:30:35;;;;;;;;;;;20.30;94.60;;;;;;5078904;28;20379;-74
2021/07/12 06:33:02;;;;;;;;;;;20.30;95.20;;;;;;5074192;28;19933;-75
2021/07/12 06:35:29;;;;;;;;;;;20.20;95.20;;;;;;5078707;28;19928;-74
2021/07/12 06:37:56;;;;;;;;;;;20.30;95.70;;;;;;5082563;28;19924;-74
2021/07/12 06:40:23;;;;;;;;;;;20.40;95.50;;;;;;5076766;28;19928;-75
2021/07/12 06:42:50;;;;;;;;;;;20.50;95.00;;;;;;5077629;28;19987;-72
2021/07/12 06:45:18;;;;;;;;;;;20.80;94.50;;;;;;5086930;28;19974;-73
2021/07/12 06:47:46;;;;;;;;;;;21.10;93.70;;;;;;5079976;28;19978;-74
2021/07/12 06:50:13;;;;;;;;;;;21.70;92.30;;;;;;5084835;28;19939;-73
2021/07/12 06:52:40;;;;;;;;;;;21.90;91.10;;;;;;5083321;28;19928;-74
2021/07/12 06:55:08;;;;;;;;;;;21.70;91.00;;;;;;5078840;28;19928;-74
2021/07/12 06:57:34;;;;;;;;;;;21.60;91.60;;;;;;5084656;28;19924;-74
2021/07/12 07:00:01;;;;;;;;;;;21.50;91.70;;;;;;5080333;28;20290;-73
2021/07/12 07:02:28;;;;;;;;;;;21.60;91.40;;;;;;5084076;28;20312;-74
2021/07/12 07:04:55;;;;;;;;;;;21.50;91.60;;;;;;5090621;28;20014;-73
2021/07/12 07:07:22;;;;;;;;;;;21.50;90.90;;;;;;5086843;28;19952;-73
2021/07/12 07:09:49;;;;;;;;;;;21.50;90.60;;;;;;5080174;28;20347;-74
2021/07/12 07:12:15;;;;;;;;;;;21.30;90.90;;;;;;5086831;28;20001;-74
2021/07/12 07:14:42;;;;;;;;;;;21.40;91.00;;;;;;5088723;28;19928;-73
2021/07/12 07:17:09;;;;;;;;;;;21.50;90.20;;;;;;5077916;28;19986;-74
2021/07/12 07:19:36;;;;;;;;;;;21.40;90.60;;;;;;5083407;28;19968;-73
2021/07/12 07:22:03;;;;;;;;;;;21.40;91.10;;;;;;5083755;28;20003;-73
2021/07/12 07:24:29;;;;;;;;;;;21.60;90.90;;;;;;5081094;28;19925;-73
2021/07/12 07:26:56;;;;;;;;;;;21.60;90.20;;;;;;5086818;28;19928;-74
2021/07/12 07:29:23;;;;;;;;;;;21.60;89.70;;;;;;5089577;28;19924;-74
2021/07/12 07:31:50;;;;;;;;;;;21.60;88.80;;;;;;5085593;28;19947;-73
2021/07/12 07:34:34;;;;;;;;;;;21.70;88.80;;;;;;5082518;28;20072;-74
2021/07/12 07:37:01;;;;;;;;;;;21.80;88.00;;;;;;5086950;28;19931;-73
2021/07/12 07:39:28;;;;;;;;;;;21.90;86.50;;;;;;5077950;28;19977;-73
2021/07/12 07:42:12;;;;;;;;;;;21.80;85.50;;;;;;5084874;28;19932;-73
2021/07/12 07:44:39;;;;;;;;;;;21.90;86.40;;;;;;5080962;28;19924;-73
2021/07/12 07:47:05;;;;;;;;;;;21.80;87.80;;;;;;5079296;28;19925;-71
2021/07/12 07:49:33;;;;;;;;;;;21.80;88.30;;;;;;5078084;28;19939;-71
2021/07/12 07:52:01;;;;;;;;;;;21.90;87.20;;;;;;5086874;28;19932;-70
2021/07/12 07:54:28;;;;;;;;;;;21.90;85.60;;;;;;5090395;28;20043;-70
2021/07/12 07:56:57;;;;;;;;;;;21.90;86.30;;;;;;5075658;28;20212;-72
2021/07/12 07:59:25;;;;;;;;;;;21.80;85.90;;;;;;5077421;28;19943;-71
2021/07/12 08:01:53;;;;;;;;;;;21.60;87.50;;;;;;5078399;28;20379;-71
2021/07/12 08:04:21;;;;;;;;;;;21.80;87.00;;;;;;5083867;28;19935;-72
2021/07/12 08:06:48;;;;;;;;;;;22.00;87.40;;;;;;5113947;27;19928;-72
2021/07/12 08:09:18;;;;;;;;;;;22.10;88.00;;;;;;5080616;28;20058;-72
2021/07/12 08:11:48;;;;;;;;;;;22.20;86.90;;;;;;5077847;28;19954;-72
2021/07/12 08:14:15;;;;;;;;;;;22.20;87.80;;;;;;5080925;28;19939;-72
2021/07/12 08:16:43;;;;;;;;;;;22.20;87.80;;;;;;5078243;28;19932;-73
2021/07/12 08:19:10;;;;;;;;;;;22.10;88.10;;;;;;5076799;28;20507;-73
2021/07/12 08:21:39;;;;;;;;;;;22.40;88.20;;;;;;5078657;28;19939;-71
2021/07/12 08:24:08;;;;;;;;;;;22.50;87.20;;;;;;5079421;28;20387;-70
2021/07/12 08:26:35;;;;;;;;;;;22.50;87.40;;;;;;5079986;28;19928;-70
2021/07/12 08:29:03;;;;;;;;;;;22.60;86.80;;;;;;5110382;27;19928;-70
2021/07/12 08:31:30;;;;;;;;;;;22.70;87.30;;;;;;5077102;28;20307;-70
2021/07/12 08:33:57;;;;;;;;;;;22.70;86.80;;;;;;5080696;28;19939;-71
2021/07/12 08:36:24;;;;;;;;;;;22.80;86.10;;;;;;5077060;28;19986;-70
2021/07/12 08:38:51;;;;;;;;;;;22.90;86.20;;;;;;5078288;28;20332;-70
2021/07/12 08:41:17;;;;;;;;;;;22.80;86.00;;;;;;5079241;28;19939;-71
2021/07/12 08:43:44;;;;;;;;;;;23.00;85.70;;;;;;5077593;28;19931;-71
2021/07/12 08:46:18;;;;;;;;;;;23.00;85.40;;;;;;5077286;28;20454;-71
2021/07/12 08:48:45;;;;;;;;;;;22.90;85.50;;;;;;5077567;28;19947;-71
2021/07/12 08:51:12;;;;;;;;;;;23.00;85.20;;;;;;5077569;28;19935;-72
2021/07/12 08:53:39;;;;;;;;;;;23.10;83.60;;;;;;5076830;28;19934;-72
2021/07/12 08:56:06;;;;;;;;;;;23.30;82.00;;;;;;5079817;28;19936;-72
2021/07/12 08:58:34;;;;;;;;;;;23.30;79.00;;;;;;5109470;27;19928;-72
2021/07/12 09:01:05;;;;;;;;;;;23.10;78.50;;;;;;5081228;28;19932;-72
2021/07/12 09:03:32;;;;;;;;;;;23.30;77.40;;;;;;5078423;28;21295;-72
2021/07/12 09:06:04;;;;;;;;;;;23.30;77.30;;;;;;5077416;28;19971;-72
2021/07/12 09:08:35;;;;;;;;;;;23.30;75.90;;;;;;5094253;27;19931;-71
2021/07/12 09:11:05;;;;;;;;;;;23.20;74.30;;;;;;5078988;28;19936;-71
2021/07/12 09:13:49;;;;;;;;;;;23.40;73.70;;;;;;5078505;28;19939;-71
2021/07/12 09:16:33;;;;;;;;;;;23.40;73.80;;;;;;5077225;28;20428;-73
2021/07/12 09:19:03;;;;;;;;;;;23.50;73.20;;;;;;5076128;28;19932;-74
2021/07/12 09:21:34;;;;;;;;;;;23.60;72.00;;;;;;5080140;28;19928;-74
2021/07/12 09:24:18;;;;;;;;;;;23.70;71.10;;;;;;5083395;28;19939;-73
2021/07/12 09:26:52;;;;;;;;;;;23.80;69.50;;;;;;5076040;28;20387;-74
2021/07/12 09:29:20;;;;;;;;;;;23.80;69.00;;;;;;5078885;28;20359;-73
2021/07/12 09:31:48;;;;;;;;;;;23.90;68.60;;;;;;5077681;28;20378;-74
2021/07/12 09:34:15;;;;;;;;;;;23.80;68.30;;;;;;5079098;28;20350;-73
2021/07/12 09:36:42;;;;;;;;;;;23.90;67.90;;;;;;5076113;28;19936;-72
2021/07/12 09:39:16;;;;;;;;;;;23.90;67.30;;;;;;5076189;28;19932;-72
2021/07/12 09:41:45;;;;;;;;;;;23.90;67.10;;;;;;5077768;28;20076;-72
2021/07/12 09:44:12;;;;;;;;;;;24.00;67.40;;;;;;5079555;28;20330;-73
2021/07/12 09:46:39;;;;;;;;;;;24.20;66.80;;;;;;5075087;28;19928;-73
2021/07/12 09:49:10;;;;;;;;;;;24.20;65.90;;;;;;5075766;28;20493;-73
2021/07/12 09:51:38;;;;;;;;;;;24.30;64.70;;;;;;5081067;28;20881;-73
2021/07/12 09:54:20;;;;;;;;;;;24.30;63.80;;;;;;5076360;28;20321;-74
2021/07/12 09:56:47;;;;;;;;;;;24.40;63.10;;;;;;5080705;28;20384;-73
2021/07/12 09:59:15;;;;;;;;;;;24.50;63.40;;;;;;5080136;28;19936;-72
2021/07/12 10:01:48;;;;;;;;;;;24.50;63.60;;;;;;5076839;28;19928;-73
2021/07/12 10:04:16;;;;;;;;;;;24.50;63.40;;;;;;5077360;28;20856;-73
2021/07/12 10:06:44;;;;;;;;;;;24.60;63.40;;;;;;5076225;28;19928;-73
2021/07/12 10:09:11;;;;;;;;;;;24.70;62.90;;;;;;5074852;28;20403;-75
2021/07/12 10:11:38;;;;;;;;;;;24.70;62.70;;;;;;5076019;28;19939;-74
2021/07/12 10:14:05;;;;;;;;;;;24.80;61.90;;;;;;5082253;28;19928;-75
2021/07/12 10:16:32;;;;;;;;;;;24.80;60.90;;;;;;5075573;28;19931;-76
2021/07/12 10:19:00;;;;;;;;;;;24.80;61.20;;;;;;5081879;28;20508;-76
2021/07/12 10:21:35;;;;;;;;;;;24.90;60.10;;;;;;5082554;28;19998;-75
2021/07/12 10:24:03;;;;;;;;;;;24.80;60.30;;;;;;5076307;28;19928;-76
2021/07/12 10:26:54;;;;;;;;;;;24.90;60.00;;;;;;5078297;28;20321;-75
2021/07/12 10:29:26;;;;;;;;;;;24.80;60.20;;;;;;5077484;28;19928;-80
2021/07/12 10:31:56;;;;;;;;;;;24.90;60.20;;;;;;5074899;28;19932;-75
2021/07/12 10:34:24;;;;;;;;;;;24.90;60.60;;;;;;5076606;28;20319;-75
2021/07/12 10:36:58;;;;;;;;;;;24.90;60.50;;;;;;5082128;28;19996;-76
2021/07/12 10:39:44;;;;;;;;;;;25.00;60.70;;;;;;5080120;28;19973;-74
2021/07/12 10:42:11;;;;;;;;;;;24.90;59.90;;;;;;5080291;28;20395;-74
2021/07/12 10:45:13;;;;;;;;;;;25.00;60.20;;;;;;5079520;28;19955;-75
2021/07/12 10:47:40;;;;;;;;;;;25.10;60.00;;;;;;5063665;28;19932;-74
2021/07/12 10:50:25;;;;;;;;;;;25.00;60.30;;;;;;5075001;28;20345;-74
2021/07/12 10:52:52;;;;;;;;;;;25.10;59.70;;;;;;5084702;28;20421;-74
2021/07/12 10:55:29;;;;;;;;;;;25.30;59.90;;;;;;5084496;28;19928;-73
2021/07/12 10:58:14;;;;;;;;;;;25.30;60.20;;;;;;5082786;28;19928;-74
2021/07/12 11:00:41;;;;;;;;;;;25.30;60.60;;;;;;5082195;28;20351;-74
2021/07/12 11:03:27;;;;;;;;;;;25.40;60.70;;;;;;5081898;28;19928;-75
2021/07/12 11:05:53;;;;;;;;;;;25.40;61.00;;;;;;5080389;28;20593;-75
2021/07/12 11:08:39;;;;;;;;;;;25.40;61.10;;;;;;5087986;28;19939;-74
2021/07/12 11:11:06;;;;;;;;;;;25.60;61.40;;;;;;5079147;28;19924;-74
2021/07/12 11:13:51;;;;;;;;;;;25.80;60.70;;;;;;5085754;28;19928;-74
2021/07/12 11:16:19;;;;;;;;;;;25.80;59.40;;;;;;5081898;28;19936;-75
2021/07/12 11:18:46;;;;;;;;;;;25.70;58.60;;;;;;5080820;28;20006;-74
2021/07/12 11:21:15;;;;;;;;;;;25.60;58.30;;;;;;5084870;28;20002;-74
2021/07/12 11:23:48;;;;;;;;;;;25.80;58.80;;;;;;5081671;28;19931;-74
2021/07/12 11:26:20;;;;;;;;;;;25.90;58.10;;;;;;5078571;28;19938;-74
2021/07/12 11:28:48;;;;;;;;;;;25.90;58.80;;;;;;5087861;28;20026;-75
2021/07/12 11:31:36;;;;;;;;;;;25.80;58.20;;;;;;5092242;28;20348;-74
2021/07/12 11:34:03;;;;;;;;;;;25.80;58.20;;;;;;5093252;28;19978;-73
2021/07/12 11:36:30;;;;;;;;;;;25.80;56.60;;;;;;5081075;28;19928;-74
2021/07/12 11:38:57;;;;;;;;;;;25.80;56.60;;;;;;5080336;28;19924;-73
2021/07/12 11:41:26;;;;;;;;;;;25.90;57.30;;;;;;5086225;28;19981;-74
2021/07/12 11:44:07;;;;;;;;;;;26.10;56.50;;;;;;5077984;28;20363;-74
2021/07/12 11:46:34;;;;;;;;;;;25.90;55.20;;;;;;5078726;28;19925;-74
2021/07/12 11:49:12;;;;;;;;;;;25.90;55.90;;;;;;5080727;28;20025;-75
2021/07/12 11:51:40;;;;;;;;;;;26.10;56.80;;;;;;5086522;28;19943;-75
2021/07/12 11:54:20;;;;;;;;;;;26.10;56.40;;;;;;5111285;27;20421;-74
2021/07/12 11:57:01;;;;;;;;;;;26.20;55.70;;;;;;5076284;28;19928;-76
2021/07/12 11:59:29;;;;;;;;;;;26.40;55.40;;;;;;5091434;28;19932;-74
2021/07/12 12:02:00;;;;;;;;;;;26.50;54.60;;;;;;5092102;28;19928;-74
2021/07/12 12:04:39;;;;;;;;;;;26.60;54.50;;;;;;5090977;28;19997;-74
2021/07/12 12:07:33;;;;;;;;;;;26.70;54.80;;;;;;5089137;28;19932;-74
2021/07/12 12:10:23;;;;;;;;;;;26.90;54.50;;;;;;5090082;28;20447;-74
2021/07/12 12:12:55;;;;;;;;;;;26.70;55.30;;;;;;5124614;27;20490;-72
2021/07/12 12:15:25;;;;;;;;;;;26.40;55.90;;;;;;5089239;28;19997;-75
2021/07/12 12:17:52;;;;;;;;;;;26.40;55.90;;;;;;5091888;28;20291;-73
2021/07/12 12:20:29;;;;;;;;;;;26.60;55.60;;;;;;5092379;28;19959;-74
2021/07/12 12:23:05;;;;;;;;;;;26.80;53.90;;;;;;5088680;28;20491;-73
2021/07/12 12:25:52;;;;;;;;;;;27.00;53.50;;;;;;5091662;28;19928;-74
2021/07/12 12:28:31;;;;;;;;;;;27.00;53.80;;;;;;5093341;28;19978;-74
2021/07/12 12:30:59;;;;;;;;;;;27.20;53.90;;;;;;5092004;28;19994;-73
2021/07/12 12:33:30;;;;;;;;;;;27.60;53.50;;;;;;5091601;28;20347;-73
2021/07/12 12:35:59;;;;;;;;;;;27.70;52.40;;;;;;5090085;28;19939;-74
2021/07/12 12:38:25;;;;;;;;;;;28.70;51.60;;;;;;5088894;28;20077;-75
2021/07/12 12:40:58;;;;;;;;;;;29.50;49.50;;;;;;5090551;28;19932;-73
2021/07/12 12:43:25;;;;;;;;;;;28.20;50.40;;;;;;5088298;28;20432;-73
2021/07/12 12:45:53;;;;;;;;;;;27.90;50.50;;;;;;5091484;28;19968;-77
2021/07/12 12:48:49;;;;;;;;;;;29.20;50.10;;;;;;5087525;28;20661;-76
2021/07/12 12:51:20;;;;;;;;;;;30.80;47.70;;;;;;5077533;28;19928;-76
2021/07/12 12:53:56;;;;;;;;;;;29.60;47.70;;;;;;5090595;28;19935;-75
2021/07/12 12:56:23;;;;;;;;;;;28.50;49.00;;;;;;5088081;28;19952;-77
2021/07/12 12:59:00;;;;;;;;;;;28.80;50.00;;;;;;5090458;28;19927;-77
2021/07/12 13:01:30;;;;;;;;;;;29.80;48.40;;;;;;5090982;28;19932;-77
2021/07/12 13:04:04;;;;;;;;;;;29.10;48.50;;;;;;5093130;28;20518;-77
2021/07/12 13:06:44;;;;;;;;;;;29.60;48.10;;;;;;5089477;28;19940;-77
2021/07/12 13:09:13;;;;;;;;;;;29.40;48.30;;;;;;5101831;27;20023;-77
2021/07/12 13:11:41;;;;;;;;;;;29.20;48.70;;;;;;5079633;28;19954;-77
2021/07/12 13:14:08;;;;;;;;;;;28.80;49.10;;;;;;5079379;28;19932;-77
2021/07/12 13:16:36;;;;;;;;;;;28.50;49.00;;;;;;5080661;28;20436;-78
2021/07/12 13:19:04;;;;;;;;;;;28.20;49.80;;;;;;5082477;28;20027;-76
2021/07/12 13:21:47;;;;;;;;;;;28.50;49.30;;;;;;5080847;28;20332;-76
2021/07/12 13:24:14;;;;;;;;;;;28.50;49.90;;;;;;5079279;28;20297;-76
2021/07/12 13:26:41;;;;;;;;;;;28.80;49.00;;;;;;5080484;28;20757;-77
2021/07/12 13:29:08;;;;;;;;;;;28.50;48.90;;;;;;5079794;28;19932;-76
2021/07/12 13:31:35;;;;;;;;;;;28.40;49.30;;;;;;5077627;28;19938;-78
2021/07/12 13:34:02;;;;;;;;;;;28.20;49.50;;;;;;5082660;28;20014;-77
2021/07/12 13:36:29;;;;;;;;;;;28.10;49.90;;;;;;5078896;28;19941;-76
2021/07/12 13:38:56;;;;;;;;;;;27.70;50.60;;;;;;5083774;28;19946;-76
2021/07/12 13:41:23;;;;;;;;;;;27.70;50.80;;;;;;5078976;28;19928;-76
2021/07/12 13:43:50;;;;;;;;;;;27.40;50.40;;;;;;5080078;28;20268;-75
2021/07/12 13:46:17;;;;;;;;;;;27.20;50.60;;;;;;5083367;28;19932;-75
2021/07/12 13:48:43;;;;;;;;;;;26.90;51.10;;;;;;5080409;28;20300;-77
2021/07/12 13:51:10;;;;;;;;;;;27.00;51.20;;;;;;5083325;28;21423;-77
2021/07/12 13:53:38;;;;;;;;;;;27.20;51.10;;;;;;5078416;28;20603;-84
2021/07/12 13:56:05;;;;;;;;;;;27.30;51.20;;;;;;5081777;28;19935;-74
2021/07/12 13:58:32;;;;;;;;;;;27.50;51.20;;;;;;5080797;28;19932;-74
2021/07/12 14:00:59;;;;;;;;;;;27.60;51.00;;;;;;5078564;28;19940;-75
2021/07/12 14:03:28;;;;;;;;;;;27.70;50.90;;;;;;5075211;28;19939;-75
2021/07/12 14:05:56;;;;;;;;;;;27.60;50.80;;;;;;5081119;28;19932;-74
2021/07/12 14:08:29;;;;;;;;;;;27.30;50.80;;;;;;5079150;28;19935;-74
2021/07/12 14:10:56;;;;;;;;;;;27.40;51.10;;;;;;5077683;28;19935;-74
2021/07/12 14:13:23;;;;;;;;;;;27.50;51.60;;;;;;5080019;28;19943;-75
2021/07/12 14:15:50;;;;;;;;;;;27.50;51.60;;;;;;5083622;28;19928;-74
2021/07/12 14:18:17;;;;;;;;;;;27.70;51.60;;;;;;5078031;28;19950;-75
2021/07/12 14:20:44;;;;;;;;;;;27.80;51.40;;;;;;5074760;28;19932;-74
2021/07/12 14:23:11;;;;;;;;;;;27.60;51.20;;;;;;5076086;28;19936;-74
2021/07/12 14:25:38;;;;;;;;;;;27.70;51.30;;;;;;5076216;28;19932;-74
2021/07/12 14:28:06;;;;;;;;;;;27.60;51.30;;;;;;5077937;28;19940;-75
2021/07/12 14:30:36;;;;;;;;;;;27.50;51.10;;;;;;5108657;27;19963;-75